Time;durP1;ratioP1;P1;durP2;ratioP2;P2;SDS_P1;SDS_P2;PMS_P1;PMS_P2;Temp;Humidity;BMP_temperature;BMP_pressure;BME280_temperature;BME280_humidity;BME280_pressure;Samples;Min_cycle;Max_cycle;Signal;HPM_P1;HPM_P2
2021/09/10 00:01:33;;;;;;;8.43;6.05;;;;;;;8.15;97.31;93617.72;1822827;77;21083;-90
2021/09/10 00:04:01;;;;;;;9.40;6.97;;;;;;;8.11;97.50;93612.85;1896790;74;20989;-90
2021/09/10 00:06:28;;;;;;;10.10;7.05;;;;;;;8.10;97.63;93618.66;1906611;73;21574;-90
2021/09/10 00:08:57;;;;;;;8.70;6.20;;;;;;;8.04;97.57;93619.56;1865275;76;21120;-89
2021/09/10 00:11:24;;;;;;;10.55;5.62;;;;;;;8.03;97.69;93626.91;1859060;76;20974;-90
2021/09/10 00:13:52;;;;;;;10.80;5.95;;;;;;;8.04;97.59;93628.45;1856037;75;20955;-91
2021/09/10 00:16:19;;;;;;;7.40;5.28;;;;;;;8.04;97.81;93627.10;1837548;75;20923;-91
2021/09/10 00:18:45;;;;;;;8.35;6.17;;;;;;;8.05;97.71;93631.97;1866933;75;21021;-90
2021/09/10 00:21:14;;;;;;;9.45;6.30;;;;;;;8.01;97.93;93625.17;1907855;74;20989;-90
2021/09/10 00:23:40;;;;;;;7.60;5.58;;;;;;;7.99;98.33;93622.62;1916525;74;20982;-90
2021/09/10 00:26:07;;;;;;;7.85;5.85;;;;;;;7.98;98.25;93615.66;1859797;75;21083;-91
2021/09/10 00:28:33;;;;;;;11.25;6.22;;;;;;;7.95;97.86;93621.23;1908203;73;20955;-90
2021/09/10 00:31:00;;;;;;;9.70;6.42;;;;;;;7.91;97.95;93620.42;1881877;75;21002;-91
2021/09/10 00:33:27;;;;;;;9.88;6.42;;;;;;;7.88;98.07;93616.33;1848905;76;20991;-90
2021/09/10 00:35:56;;;;;;;11.90;6.90;;;;;;;7.84;98.40;93612.81;1776559;78;20948;-91
2021/09/10 00:38:23;;;;;;;9.05;5.33;;;;;;;7.84;98.78;93612.81;1861171;75;21509;-89
2021/09/10 00:40:50;;;;;;;7.72;5.25;;;;;;;7.83;98.85;93610.68;1916717;74;21056;-91
2021/09/10 00:43:16;;;;;;;12.37;6.33;;;;;;;7.81;98.99;93615.67;1902653;74;20943;-89
2021/09/10 00:45:46;;;;;;;10.68;5.53;;;;;;;7.79;99.08;93613.36;1878494;75;20974;-90
2021/09/10 00:48:14;;;;;;;9.45;5.85;;;;;;;7.78;99.15;93611.00;1891192;75;20989;-90
2021/09/10 00:50:41;;;;;;;15.43;6.45;;;;;;;7.74;99.40;93609.61;1853545;75;21091;-90
2021/09/10 00:53:08;;;;;;;11.28;5.45;;;;;;;7.75;99.49;93614.48;1869448;75;21713;-90
2021/09/10 00:55:35;;;;;;;8.48;4.72;;;;;;;7.74;99.32;93612.31;1871283;74;20966;-91
2021/09/10 00:58:03;;;;;;;7.67;5.25;;;;;;;7.72;99.15;93608.45;1865995;75;21011;-90
2021/09/10 01:00:31;;;;;;;9.63;5.67;;;;;;;7.70;99.07;93616.15;1833815;76;21514;-90
2021/09/10 01:02:58;;;;;;;8.13;5.85;;;;;;;7.69;99.22;93614.59;1831602;76;21205;-90
2021/09/10 01:05:24;;;;;;;10.68;6.17;;;;;;;7.68;99.26;93617.11;1796311;79;20956;-90
2021/09/10 01:07:51;;;;;;;7.90;5.87;;;;;;;7.67;99.04;93623.10;1783673;77;21031;-90
2021/09/10 01:10:18;;;;;;;14.68;6.37;;;;;;;7.64;99.07;93625.19;1876226;74;21001;-90
2021/09/10 01:12:46;;;;;;;7.62;5.78;;;;;;;7.61;98.92;93623.80;1910927;74;20953;-90
2021/09/10 01:15:13;;;;;;;8.78;6.12;;;;;;;7.57;98.77;93629.17;1878269;74;21096;-89
2021/09/10 01:17:39;;;;;;;8.75;5.58;;;;;;;7.52;98.65;93622.72;1882148;75;21025;-90
2021/09/10 01:20:07;;;;;;;7.08;6.17;;;;;;;7.46;98.60;93624.99;1830165;75;21120;-91
2021/09/10 01:22:34;;;;;;;6.90;5.87;;;;;;;7.41;98.68;93628.59;1809559;78;21472;-90
2021/09/10 01:25:12;;;;;;;8.55;6.17;;;;;;;7.33;98.59;93623.67;1848058;77;20994;-90
2021/09/10 01:27:44;;;;;;;6.55;5.58;;;;;;;7.28;98.66;93625.36;1870134;75;21757;-90
2021/09/10 01:30:15;;;;;;;8.50;5.97;;;;;;;7.22;98.97;93622.77;1881740;75;21001;-91
2021/09/10 01:32:41;;;;;;;11.35;6.72;;;;;;;7.20;99.13;93617.73;1878264;75;20958;-90
2021/09/10 01:35:08;;;;;;;9.08;6.45;;;;;;;7.17;99.29;93617.70;1888490;75;20926;-91
2021/09/10 01:37:35;;;;;;;7.45;5.60;;;;;;;7.15;99.27;93616.72;1849836;75;21002;-90
2021/09/10 01:40:03;;;;;;;9.85;6.05;;;;;;;7.12;99.35;93620.16;1862177;75;21093;-91
2021/09/10 01:42:29;;;;;;;10.55;5.70;;;;;;;7.11;99.35;93619.96;1879913;75;20945;-90
2021/09/10 01:44:56;;;;;;;13.03;6.65;;;;;;;7.08;99.71;93619.34;1747967;82;20973;-90
2021/09/10 01:47:22;;;;;;;9.85;5.55;;;;;;;7.09;100.00;93613.35;1895069;75;20978;-91
2021/09/10 01:49:49;;;;;;;12.15;6.05;;;;;;;7.08;100.00;93613.93;1851378;74;20992;-90
2021/09/10 01:52:15;;;;;;;6.28;5.00;;;;;;;7.07;99.99;93608.33;1826283;77;21125;-90
2021/09/10 01:54:41;;;;;;;15.58;5.30;;;;;;;7.05;100.00;93610.61;1781372;78;21049;-90
2021/09/10 01:57:08;;;;;;;7.53;5.78;;;;;;;7.04;100.00;93617.94;1851301;77;21021;-90
2021/09/10 01:59:35;;;;;;;7.50;5.75;;;;;;;7.06;100.00;93616.20;1824020;78;21049;-90
2021/09/10 02:02:02;;;;;;;7.60;4.92;;;;;;;7.03;99.94;93605.58;1836998;78;21038;-91
2021/09/10 02:04:28;;;;;;;10.70;6.40;;;;;;;6.99;99.98;93613.41;1830939;77;21402;-90
2021/09/10 02:06:55;;;;;;;8.90;6.45;;;;;;;6.96;100.00;93612.24;1825077;78;20943;-90
2021/09/10 02:09:22;;;;;;;12.83;6.63;;;;;;;6.94;100.00;93613.17;1830623;78;21058;-90
2021/09/10 02:11:49;;;;;;;8.00;5.05;;;;;;;6.93;100.00;93617.03;1804968;77;21037;-90
2021/09/10 02:14:16;;;;;;;9.88;5.22;;;;;;;6.91;100.00;93617.17;1811442;77;21034;-90
2021/09/10 02:16:43;;;;;;;8.05;5.92;;;;;;;6.85;100.00;93622.14;1825528;77;21134;-90
2021/09/10 02:19:09;;;;;;;13.90;6.35;;;;;;;6.80;100.00;93617.80;1844885;75;21505;-90
2021/09/10 02:21:37;;;;;;;10.50;6.20;;;;;;;6.79;100.00;93622.23;1869414;75;22829;-90
2021/09/10 02:24:04;;;;;;;10.00;5.87;;;;;;;6.76;100.00;93615.63;1802314;79;20993;-90
2021/09/10 02:26:32;;;;;;;7.10;5.15;;;;;;;6.74;100.00;93616.58;1801652;77;21069;-90
2021/09/10 02:28:59;;;;;;;6.70;5.30;;;;;;;6.72;100.00;93614.80;1821524;77;21541;-91
2021/09/10 02:31:25;;;;;;;7.20;5.20;;;;;;;6.70;100.00;93607.66;1855544;76;20940;-91
2021/09/10 02:33:51;;;;;;;8.63;5.20;;;;;;;6.72;100.00;93613.45;1833099;77;21025;-91
2021/09/10 02:36:18;;;;;;;13.15;6.42;;;;;;;6.72;100.00;93616.73;1800291;79;20942;-90
2021/09/10 02:38:45;;;;;;;8.73;5.90;;;;;;;6.69;100.00;93614.18;1868023;75;21039;-91
2021/09/10 02:41:12;;;;;;;5.65;4.65;;;;;;;6.69;100.00;93616.11;1823966;75;21269;-91
2021/09/10 02:43:40;;;;;;;7.45;5.35;;;;;;;6.66;100.00;93614.16;1838292;76;21026;-91
2021/09/10 02:46:07;;;;;;;6.60;4.70;;;;;;;6.62;100.00;93614.66;1867711;75;21410;-91
2021/09/10 02:48:34;;;;;;;8.65;4.45;;;;;;;6.62;100.00;93611.95;1822528;78;21014;-90
2021/09/10 02:51:00;;;;;;;10.10;5.17;;;;;;;6.59;100.00;93608.66;1811719;79;21039;-91
2021/09/10 02:53:27;;;;;;;4.87;4.37;;;;;;;6.55;100.00;93605.33;1854015;75;20900;-90
2021/09/10 02:56:00;;;;;;;8.00;4.30;;;;;;;6.50;100.00;93606.19;1877405;75;21377;-91
2021/09/10 02:58:24;;;;;;;9.65;4.20;;;;;;;6.48;100.00;93615.25;1894209;75;20987;-92
2021/09/10 03:00:50;;;;;;;10.88;4.12;;;;;;;6.45;100.00;93618.09;1879853;75;21219;-90
2021/09/10 03:03:17;;;;;;;5.92;3.65;;;;;;;6.43;100.00;93620.95;1798665;77;20977;-92
2021/09/10 03:05:44;;;;;;;5.28;4.53;;;;;;;6.39;100.00;93616.84;1798090;78;21106;-90
2021/09/10 03:08:10;;;;;;;6.47;4.30;;;;;;;6.36;100.00;93616.24;1810395;77;21567;-91
2021/09/10 03:10:38;;;;;;;6.83;4.08;;;;;;;6.36;100.00;93618.14;1796599;79;20931;-91
2021/09/10 03:13:06;;;;;;;5.75;4.55;;;;;;;6.32;100.00;93609.43;1811947;77;21005;-90
2021/09/10 03:15:33;;;;;;;8.50;4.60;;;;;;;6.29;100.00;93608.03;1830658;77;21088;-89
2021/09/10 03:17:59;;;;;;;6.40;4.78;;;;;;;6.27;100.00;93609.72;1887888;75;21078;-90
2021/09/10 03:20:26;;;;;;;5.17;3.90;;;;;;;6.30;100.00;93614.98;1828482;75;21022;-90
2021/09/10 03:22:54;;;;;;;7.33;4.47;;;;;;;6.27;99.77;93608.95;1813441;77;21069;-90
2021/09/10 03:25:21;;;;;;;12.70;4.65;;;;;;;6.26;99.87;93610.09;1812582;79;21540;-91
2021/09/10 03:27:47;;;;;;;6.53;4.60;;;;;;;6.25;99.81;93610.67;1799772;76;20970;-91
2021/09/10 03:30:14;;;;;;;7.15;4.25;;;;;;;6.24;99.95;93616.42;1842134;77;21118;-90
2021/09/10 03:32:41;;;;;;;8.80;4.58;;;;;;;6.24;100.00;93616.42;1882843;74;20986;-90
2021/09/10 03:35:08;;;;;;;5.95;4.22;;;;;;;6.24;100.00;93613.72;1887649;73;20941;-91
2021/09/10 03:37:35;;;;;;;4.95;4.42;;;;;;;6.24;100.00;93615.88;1913785;73;21114;-91
2021/09/10 03:40:03;;;;;;;5.87;4.40;;;;;;;6.23;100.00;93615.64;1899827;74;21001;-91
2021/09/10 03:42:29;;;;;;;9.40;4.22;;;;;;;6.24;100.00;93611.82;1830728;75;21174;-91
2021/09/10 03:44:57;;;;;;;14.63;4.00;;;;;;;6.25;100.00;93615.30;1915264;74;20975;-91
2021/09/10 03:47:23;;;;;;;4.72;3.37;;;;;;;6.23;99.67;93611.59;1890349;74;20990;-90
2021/09/10 03:49:50;;;;;;;4.72;3.55;;;;;;;6.20;99.32;93610.19;1859916;75;21048;-91
2021/09/10 03:52:16;;;;;;;4.25;3.50;;;;;;;6.15;99.01;93609.92;1888497;74;21524;-90
2021/09/10 03:54:42;;;;;;;5.08;3.77;;;;;;;6.10;99.21;93606.19;1801542;78;21631;-90
2021/09/10 03:57:09;;;;;;;4.53;3.70;;;;;;;6.07;99.38;93612.31;1841672;76;21110;-92
2021/09/10 03:59:36;;;;;;;6.95;4.70;;;;;;;6.05;99.59;93614.00;1823417;77;20982;-90
2021/09/10 04:02:03;;;;;;;6.08;4.33;;;;;;;6.05;99.73;93618.62;1855771;75;21528;-91
2021/09/10 04:04:29;;;;;;;6.47;4.30;;;;;;;6.04;99.71;93623.25;1841383;77;21014;-92
2021/09/10 04:06:56;;;;;;;6.70;5.17;;;;;;;6.03;99.85;93627.67;1899840;73;21496;-92
2021/09/10 04:09:22;;;;;;;7.15;5.22;;;;;;;6.01;99.89;93623.97;1871360;74;21388;-91
2021/09/10 04:11:51;;;;;;;11.60;5.20;;;;;;;6.01;99.86;93625.89;1869708;75;21042;-92
2021/09/10 04:14:18;;;;;;;7.30;5.45;;;;;;;5.99;99.80;93621.44;1835993;75;21112;-92
2021/09/10 04:16:44;;;;;;;11.43;6.28;;;;;;;5.95;99.67;93622.73;1906868;73;20908;-91
2021/09/10 04:19:12;;;;;;;9.15;6.15;;;;;;;5.88;99.57;93623.92;1911403;74;20956;-91
2021/09/10 04:21:41;;;;;;;7.80;6.08;;;;;;;5.87;99.68;93626.97;1866902;75;21485;-93
2021/09/10 04:24:09;;;;;;;7.65;4.95;;;;;;;5.87;99.81;93631.02;1847202;76;20908;-91
2021/09/10 04:26:36;;;;;;;6.40;4.65;;;;;;;5.87;99.99;93626.42;1851665;75;21498;-91
2021/09/10 04:29:02;;;;;;;7.85;5.20;;;;;;;5.87;99.82;93625.08;1841094;75;21044;-91
2021/09/10 04:31:30;;;;;;;14.55;5.72;;;;;;;5.86;99.78;93627.55;1859899;76;21054;-90
2021/09/10 04:34:00;;;;;;;11.60;5.40;;;;;;;5.83;99.79;93623.66;1787042;78;20912;-91
2021/09/10 04:36:26;;;;;;;8.98;5.15;;;;;;;5.82;100.00;93623.43;1864777;75;21578;-90
2021/09/10 04:38:53;;;;;;;16.10;5.20;;;;;;;5.84;100.00;93623.86;1818132;77;21401;-89
2021/09/10 04:41:21;;;;;;;6.28;5.45;;;;;;;5.81;99.96;93622.45;1826300;76;21568;-91
2021/09/10 04:43:49;;;;;;;6.70;5.35;;;;;;;5.81;100.00;93625.92;1836700;77;21076;-91
2021/09/10 04:46:16;;;;;;;8.38;5.25;;;;;;;5.81;100.00;93625.92;1859445;74;20985;-91
2021/09/10 04:48:43;;;;;;;12.03;5.40;;;;;;;5.82;100.00;93619.95;1894100;75;21040;-90
2021/09/10 04:51:10;;;;;;;12.13;6.15;;;;;;;5.82;100.00;93620.73;1847241;76;21034;-91
2021/09/10 04:53:36;;;;;;;10.13;6.08;;;;;;;5.84;100.00;93621.73;1846121;76;21006;-91
2021/09/10 04:56:03;;;;;;;8.45;5.70;;;;;;;5.91;100.00;93622.44;1845405;76;21125;-92
2021/09/10 04:58:30;;;;;;;6.78;5.58;;;;;;;5.97;100.00;93624.48;1815320;75;21132;-91
2021/09/10 05:00:57;;;;;;;11.75;6.25;;;;;;;6.06;100.00;93621.56;1830323;75;21041;-89
2021/09/10 05:03:24;;;;;;;7.50;5.87;;;;;;;6.18;100.00;93617.89;1843052;75;20932;-90
2021/09/10 05:05:50;;;;;;;7.87;5.40;;;;;;;6.37;100.00;93617.02;1834081;75;21220;-91
2021/09/10 05:08:17;;;;;;;6.95;4.95;;;;;;;6.55;100.00;93622.88;1820424;77;21739;-91
2021/09/10 05:10:45;;;;;;;8.20;5.08;;;;;;;6.70;100.00;93616.34;1817673;76;21033;-90
2021/09/10 05:15:38;;;;;;;7.10;5.80;;;;;;;6.99;99.07;93618.24;1850309;75;21719;-89
2021/09/10 05:18:06;;;;;;;7.37;5.25;;;;;;;7.11;98.44;93615.91;1836752;75;21087;-87
2021/09/10 05:20:33;;;;;;;6.78;5.53;;;;;;;7.18;97.66;93611.91;1850162;75;21110;-90
2021/09/10 05:23:00;;;;;;;9.28;6.12;;;;;;;7.24;97.39;93613.72;1880944;75;20998;-90
2021/09/10 05:25:26;;;;;;;8.43;5.97;;;;;;;7.35;97.61;93615.98;1905115;74;21021;-90
2021/09/10 05:27:53;;;;;;;6.20;5.40;;;;;;;7.55;97.65;93618.70;1857288;75;21107;-89
2021/09/10 05:30:21;;;;;;;6.72;5.15;;;;;;;7.79;96.84;93612.58;1892697;73;21017;-89
2021/09/10 05:32:47;;;;;;;5.22;4.62;;;;;;;7.99;95.67;93607.73;1897322;73;21428;-91
2021/09/10 05:35:15;;;;;;;5.83;4.85;;;;;;;8.17;94.83;93611.37;1889223;74;21579;-89
2021/09/10 05:37:43;;;;;;;5.85;5.03;;;;;;;8.28;94.01;93618.23;1881857;73;21124;-89
2021/09/10 05:40:11;;;;;;;7.10;5.95;;;;;;;8.37;92.80;93612.48;1855719;75;21685;-89
2021/09/10 05:42:37;;;;;;;5.47;4.75;;;;;;;8.41;92.28;93612.73;1904158;74;20926;-89
2021/09/10 05:45:07;;;;;;;8.18;5.22;;;;;;;8.41;91.94;93617.38;1860408;74;21176;-88
2021/09/10 05:47:33;;;;;;;6.85;5.30;;;;;;;8.44;91.36;93613.34;1849854;75;21733;-86
2021/09/10 05:49:59;;;;;;;7.70;5.80;;;;;;;8.57;91.36;93614.38;1882823;74;20974;-88
2021/09/10 05:52:28;;;;;;;5.78;5.00;;;;;;;8.70;90.84;93616.42;1903393;74;21002;-89
2021/09/10 05:54:54;;;;;;;6.37;5.22;;;;;;;8.79;90.57;93607.16;1893591;75;21019;-88
2021/09/10 05:57:21;;;;;;;7.25;5.47;;;;;;;8.89;90.36;93614.01;1843184;75;21091;-88
2021/09/10 05:59:47;;;;;;;8.65;4.90;;;;;;;9.02;90.53;93610.38;1824359;75;21013;-89
2021/09/10 06:02:13;;;;;;;5.62;4.92;;;;;;;9.21;90.48;93616.89;1866055;74;21092;-90
2021/09/10 06:04:40;;;;;;;6.95;4.70;;;;;;;9.37;89.68;93611.13;1899293;74;21115;-91
2021/09/10 06:07:07;;;;;;;5.85;5.28;;;;;;;9.58;89.19;93617.20;1894507;74;21029;-90
2021/09/10 06:09:35;;;;;;;4.62;4.12;;;;;;;9.84;89.04;93622.11;1876966;74;21066;-91
2021/09/10 06:12:02;;;;;;;5.90;4.87;;;;;;;10.07;88.32;93616.33;1883922;73;21069;-90
2021/09/10 06:14:28;;;;;;;5.83;4.47;;;;;;;10.24;88.39;93620.23;1876609;73;21081;-89
2021/09/10 06:16:56;;;;;;;7.75;4.80;;;;;;;10.40;87.43;93620.65;1850531;75;21571;-89
2021/09/10 06:19:24;;;;;;;6.37;4.95;;;;;;;10.50;87.37;93627.26;1847625;76;21005;-90
2021/09/10 06:21:51;;;;;;;6.95;4.75;;;;;;;10.62;87.53;93624.14;1830639;76;21586;-89
2021/09/10 06:24:17;;;;;;;5.55;4.30;;;;;;;10.68;86.92;93621.20;1833298;76;21100;-90
2021/09/10 06:26:45;;;;;;;4.72;4.10;;;;;;;10.80;87.09;93616.73;1797463;77;21647;-88
2021/09/10 06:29:13;;;;;;;5.45;4.05;;;;;;;10.94;86.99;93620.80;1867349;74;21135;-89
2021/09/10 06:31:39;;;;;;;6.08;3.90;;;;;;;11.11;86.63;93620.55;1891331;73;21123;-87
2021/09/10 06:34:07;;;;;;;5.40;3.98;;;;;;;11.29;86.76;93621.09;1859711;75;21205;-90
2021/09/10 06:36:33;;;;;;;5.72;4.15;;;;;;;11.48;86.68;93612.45;1816761;77;21097;-90
2021/09/10 06:39:00;;;;;;;4.62;4.17;;;;;;;11.64;85.65;93609.27;1828662;77;21061;-89
2021/09/10 06:41:26;;;;;;;5.42;4.70;;;;;;;11.73;84.53;93608.81;1827642;76;21033;-87
2021/09/10 06:43:54;;;;;;;7.03;4.75;;;;;;;11.83;83.97;93610.16;1802709;74;21632;-90
2021/09/10 06:46:21;;;;;;;5.45;4.17;;;;;;;11.97;83.54;93612.03;1904002;73;21627;-89
2021/09/10 06:48:47;;;;;;;12.23;4.97;;;;;;;12.11;82.60;93602.97;1849988;74;21026;-89
2021/09/10 06:51:14;;;;;;;5.03;4.00;;;;;;;12.25;82.28;93604.83;1805457;75;21042;-91
2021/09/10 06:53:42;;;;;;;5.65;4.05;;;;;;;12.39;83.25;93600.04;1775806;78;21117;-87
2021/09/10 06:56:11;;;;;;;5.10;4.47;;;;;;;12.62;82.90;93604.91;1798068;75;21502;-89
2021/09/10 06:58:39;;;;;;;4.10;3.70;;;;;;;12.95;81.41;93603.27;1802472;75;21036;-88
2021/09/10 07:01:06;;;;;;;6.30;4.62;;;;;;;13.33;78.32;93600.72;1834014;73;21071;-89
2021/09/10 07:03:34;;;;;;;5.55;3.87;;;;;;;13.79;76.57;93602.70;1836116;74;21101;-88
2021/09/10 07:06:00;;;;;;;4.42;4.03;;;;;;;14.17;74.48;93599.83;1813064;76;21663;-90
2021/09/10 07:08:28;;;;;;;4.78;3.90;;;;;;;14.42;74.29;93596.13;1839818;74;21088;-89
2021/09/10 07:10:57;;;;;;;4.60;4.20;;;;;;;14.60;73.01;93595.88;1881186;74;21016;-90
2021/09/10 07:13:23;;;;;;;6.78;3.62;;;;;;;14.67;71.48;93594.39;1848358;75;21639;-89
2021/09/10 07:15:50;;;;;;;5.30;4.33;;;;;;;14.74;71.43;93600.31;1880819;74;21049;-88
2021/09/10 07:18:16;;;;;;;4.47;3.80;;;;;;;14.80;70.51;93598.66;1864148;74;20979;-90
2021/09/10 07:20:43;;;;;;;5.67;3.42;;;;;;;14.86;70.47;93591.53;1848027;75;21456;-88
2021/09/10 07:23:09;;;;;;;6.35;3.62;;;;;;;14.92;70.22;93589.84;1831625;76;21076;-86
2021/09/10 07:25:36;;;;;;;5.08;4.58;;;;;;;15.03;69.46;93589.05;1848872;76;21050;-86
2021/09/10 07:28:02;;;;;;;3.72;3.42;;;;;;;15.13;69.50;93584.58;1873773;74;21599;-90
2021/09/10 07:30:29;;;;;;;4.40;3.83;;;;;;;15.25;69.94;93581.21;1864920;74;21105;-89
2021/09/10 07:32:55;;;;;;;6.70;3.50;;;;;;;15.38;67.71;93584.08;1860665;74;21006;-86
2021/09/10 07:35:21;;;;;;;6.40;4.08;;;;;;;15.46;67.67;93580.63;1857049;74;21521;-91
2021/09/10 07:37:48;;;;;;;4.80;4.17;;;;;;;15.49;67.52;93581.14;1850667;74;21045;-90
2021/09/10 07:40:16;;;;;;;4.60;4.05;;;;;;;15.53;68.37;93578.52;1837257;75;21029;-88
2021/09/10 07:42:43;;;;;;;5.25;3.77;;;;;;;15.58;67.86;93579.22;1825240;76;21131;-87
2021/09/10 07:45:12;;;;;;;4.65;3.92;;;;;;;15.64;67.17;93575.53;1827673;75;21036;-89
2021/09/10 07:47:42;;;;;;;7.75;4.33;;;;;;;15.70;66.17;93578.00;1870308;75;21201;-89
2021/09/10 07:50:09;;;;;;;6.53;4.17;;;;;;;15.76;66.05;93579.05;1845128;75;21059;-88
2021/09/10 07:52:35;;;;;;;5.03;4.22;;;;;;;15.79;64.51;93577.41;1872475;74;21715;-90
2021/09/10 07:55:02;;;;;;;5.03;3.67;;;;;;;15.88;64.59;93573.52;1826933;75;21116;-90
2021/09/10 07:57:29;;;;;;;5.35;3.77;;;;;;;15.95;64.15;93580.22;1879309;74;20937;-90
2021/09/10 07:59:58;;;;;;;5.87;4.33;;;;;;;16.02;64.53;93575.15;1865057;74;21671;-90
2021/09/10 08:02:27;;;;;;;5.25;4.17;;;;;;;16.14;65.42;93577.25;1824154;75;21263;-85
2021/09/10 08:04:55;;;;;;;4.10;3.80;;;;;;;16.26;65.07;93577.94;1803818;76;21109;-88
2021/09/10 08:07:21;;;;;;;5.58;4.33;;;;;;;16.31;64.37;93571.16;1851944;75;20978;-88
2021/09/10 08:09:48;;;;;;;4.92;4.20;;;;;;;16.33;64.31;93571.52;1865425;75;21096;-86
2021/09/10 08:12:14;;;;;;;17.05;4.30;;;;;;;16.34;64.27;93566.80;1893743;75;21678;-86
2021/09/10 08:14:41;;;;;;;4.62;4.00;;;;;;;16.40;63.42;93568.61;1888505;74;21116;-87
2021/09/10 08:17:08;;;;;;;5.65;4.20;;;;;;;16.47;62.12;93560.22;1895356;74;20946;-88
2021/09/10 08:19:37;;;;;;;5.72;4.12;;;;;;;16.56;61.80;93558.84;1889166;73;21029;-87
2021/09/10 08:22:03;;;;;;;5.78;4.50;;;;;;;16.64;61.32;93562.34;1898282;74;21030;-86
2021/09/10 08:24:30;;;;;;;7.83;5.70;;;;;;;16.73;60.25;93556.23;1877041;74;21618;-87
2021/09/10 08:26:57;;;;;;;19.60;8.98;;;;;;;16.81;60.47;93559.59;1858031;75;20990;-91
2021/09/10 08:29:23;;;;;;;8.20;6.03;;;;;;;16.89;60.81;93554.11;1843356;75;21029;-90
2021/09/10 08:31:51;;;;;;;5.60;5.10;;;;;;;16.95;61.18;93555.88;1819746;77;21445;-87
2021/09/10 08:34:19;;;;;;;6.28;5.25;;;;;;;17.03;61.28;93550.97;1808942;77;21295;-91
2021/09/10 08:36:46;;;;;;;10.85;5.15;;;;;;;17.12;60.92;93551.75;1853910;74;21116;-88
2021/09/10 08:39:12;;;;;;;6.55;4.75;;;;;;;17.20;60.79;93546.98;1881895;75;21077;-90
2021/09/10 08:41:39;;;;;;;6.17;5.22;;;;;;;17.28;60.37;93550.31;1850105;74;21106;-88
2021/09/10 08:44:06;;;;;;;5.95;4.40;;;;;;;17.39;60.19;93547.27;1887917;74;21028;-91
2021/09/10 08:46:39;;;;;;;5.60;4.50;;;;;;;17.49;59.38;93548.95;1900001;74;20926;-90
2021/09/10 08:49:08;;;;;;;6.47;4.28;;;;;;;17.57;59.94;93541.28;1866905;74;21166;-91
2021/09/10 08:51:36;;;;;;;10.98;5.17;;;;;;;17.62;60.25;93541.50;1832802;76;21069;-90
2021/09/10 08:54:03;;;;;;;6.62;4.47;;;;;;;17.70;59.90;93545.58;1831987;76;21037;-86
2021/09/10 08:56:29;;;;;;;5.08;4.50;;;;;;;17.80;59.18;93541.02;1863994;76;21291;-90
2021/09/10 08:59:14;;;;;;;6.20;3.90;;;;;;;17.92;58.88;93532.61;1856221;75;21019;-88
2021/09/10 09:01:54;;;;;;;6.58;4.33;;;;;;;18.07;57.78;93534.32;1854937;75;21043;-90
2021/09/10 09:04:22;;;;;;;8.68;3.70;;;;;;;18.17;55.79;93531.85;1862500;75;21071;-90
2021/09/10 09:06:52;;;;;;;4.47;3.17;;;;;;;18.26;55.34;93530.56;1870549;75;21838;-91
2021/09/10 09:09:46;;;;;;;4.47;3.85;;;;;;;18.35;55.10;93530.66;1873990;75;21635;-92
2021/09/10 09:12:29;;;;;;;4.28;3.45;;;;;;;18.41;55.10;93524.77;1854774;75;21521;-85
2021/09/10 09:14:59;;;;;;;3.90;3.22;;;;;;;18.48;54.82;93530.66;1860393;75;21883;-90
2021/09/10 09:20:19;;;;;;;4.95;3.83;;;;;;;18.55;54.39;93518.04;1871136;74;21026;-88
2021/09/10 09:23:02;;;;;;;5.90;3.58;;;;;;;18.63;53.63;93519.34;1845005;75;21061;-88
2021/09/10 09:25:33;;;;;;;6.87;4.95;;;;;;;18.69;53.43;93513.44;1856629;75;21026;-88
2021/09/10 09:28:25;;;;;;;5.08;4.10;;;;;;;18.74;55.04;93514.89;1824384;76;21095;-89
2021/09/10 09:31:01;;;;;;;3.77;3.25;;;;;;;18.79;54.67;93515.69;1802095;76;21035;-90
2021/09/10 09:33:35;;;;;;;5.47;3.47;;;;;;;18.82;54.97;93509.30;1842698;74;21045;-86
2021/09/10 09:36:06;;;;;;;27.50;4.50;;;;;;;18.87;55.30;93508.72;1881019;74;21058;-85
2021/09/10 09:41:08;;;;;;;6.87;4.47;;;;;;;18.99;54.99;93506.36;1894751;74;21461;-89
2021/09/10 09:43:42;;;;;;;4.53;3.60;;;;;;;19.04;55.28;93511.32;1836683;74;21023;-88
2021/09/10 09:46:11;;;;;;;6.42;4.10;;;;;;;19.08;54.38;93514.72;1817440;76;20973;-91
2021/09/10 09:48:42;;;;;;;6.35;4.97;;;;;;;19.11;53.77;93511.08;1825779;75;21163;-85
2021/09/10 09:51:12;;;;;;;6.17;4.37;;;;;;;19.15;54.51;93508.35;1839201;75;21099;-91
2021/09/10 09:53:43;;;;;;;6.90;3.35;;;;;;;19.23;53.52;93503.97;1820769;77;21138;-87
2021/09/10 09:56:10;;;;;;;5.45;4.40;;;;;;;19.32;52.59;93503.41;1822704;77;21050;-90
2021/09/10 09:58:37;;;;;;;5.58;3.52;;;;;;;19.39;52.10;93504.53;1876499;74;20978;-88
2021/09/10 10:01:04;;;;;;;4.55;3.70;;;;;;;19.46;51.60;93502.13;1870309;74;21717;-89
2021/09/10 10:03:31;;;;;;;9.00;3.77;;;;;;;19.49;49.74;93506.75;1863603;74;21604;-85
2021/09/10 10:06:09;;;;;;;7.92;3.60;;;;;;;19.55;49.88;93504.16;1880372;74;21093;-88
2021/09/10 10:11:40;;;;;;;6.70;3.95;;;;;;;19.68;49.29;93499.38;1860511;75;21149;-89
2021/09/10 10:14:07;;;;;;;4.55;3.35;;;;;;;19.76;49.56;93498.50;1851045;76;21460;-86
2021/09/10 10:16:42;;;;;;;12.58;4.60;;;;;;;19.79;50.17;93496.23;1853209;75;22065;-87
2021/09/10 10:19:25;;;;;;;6.55;3.20;;;;;;;19.81;50.14;93486.26;1874421;74;21674;-90
2021/09/10 10:22:01;;;;;;;4.65;3.30;;;;;;;19.85;49.61;93488.27;1802798;77;21052;-88
2021/09/10 10:24:50;;;;;;;5.12;3.85;;;;;;;19.86;49.17;93496.72;1799933;77;21497;-88
2021/09/10 10:27:30;;;;;;;5.03;3.95;;;;;;;19.86;48.38;93490.44;1836965;76;21108;-89
2021/09/10 10:29:56;;;;;;;4.53;3.22;;;;;;;19.87;48.45;93487.83;1854482;76;20998;-90
2021/09/10 10:32:39;;;;;;;4.47;3.83;;;;;;;19.92;48.43;93482.33;1848326;76;21131;-88
2021/09/10 10:35:19;;;;;;;5.65;3.50;;;;;;;19.91;48.04;93488.45;1859308;75;21454;-91
2021/09/10 10:37:55;;;;;;;4.08;3.52;;;;;;;19.95;47.63;93485.56;1852886;76;21020;-88
2021/09/10 10:40:48;;;;;;;4.72;3.35;;;;;;;19.98;47.22;93481.28;1790659;77;21045;-90
2021/09/10 10:43:24;;;;;;;4.97;3.75;;;;;;;20.03;47.69;93484.06;1819498;76;21509;-87
2021/09/10 10:46:08;;;;;;;4.03;3.50;;;;;;;20.09;48.47;93480.26;1845170;76;21938;-89
2021/09/10 10:48:44;;;;;;;6.00;3.58;;;;;;;20.13;47.96;93480.12;1845676;76;21097;-89
2021/09/10 10:51:20;;;;;;;5.03;3.85;;;;;;;20.17;47.58;93478.59;1865842;74;21026;-89
2021/09/10 10:54:00;;;;;;;9.73;4.15;;;;;;;20.20;47.63;93477.66;1865837;74;21064;-88
2021/09/10 10:56:39;;;;;;;4.85;3.70;;;;;;;20.22;46.79;93475.23;1853263;75;21015;-88
2021/09/10 10:59:25;;;;;;;4.10;3.58;;;;;;;20.29;46.80;93476.33;1832499;75;21514;-87
2021/09/10 11:02:25;;;;;;;8.05;4.03;;;;;;;20.38;45.88;93472.20;1805738;77;21075;-87
2021/09/10 11:05:14;;;;;;;8.53;6.62;;;;;;;20.41;46.97;93472.67;1835277;75;21057;-86
2021/09/10 11:07:44;;;;;;;14.55;9.78;;;;;;;20.45;45.33;93469.15;1840446;75;21148;-90
2021/09/10 11:10:18;;;;;;;10.08;6.75;;;;;;;20.49;45.30;93471.77;1834318;75;21378;-89
2021/09/10 11:12:49;;;;;;;7.28;5.65;;;;;;;20.51;44.68;93466.59;1804827;77;21015;-88
2021/09/10 11:15:33;;;;;;;6.90;6.03;;;;;;;20.53;44.21;93464.13;1805400;77;21041;-88
2021/09/10 11:18:14;;;;;;;7.87;4.85;;;;;;;20.52;43.88;93460.60;1882595;75;21656;-87
2021/09/10 11:20:48;;;;;;;6.65;4.90;;;;;;;20.54;45.84;93462.92;1826906;75;21030;-88
2021/09/10 11:23:20;;;;;;;7.53;5.78;;;;;;;20.57;44.65;93459.22;1880951;74;25624;-87
2021/09/10 11:25:48;;;;;;;8.13;6.00;;;;;;;20.61;44.79;93464.77;1851829;74;21176;-87
2021/09/10 11:28:15;;;;;;;6.60;5.42;;;;;;;20.66;45.39;93464.02;1891681;74;21166;-88
2021/09/10 11:30:42;;;;;;;6.83;4.85;;;;;;;20.70;45.66;93456.34;1868717;74;21673;-87
2021/09/10 11:33:08;;;;;;;6.87;4.15;;;;;;;20.71;44.56;93455.10;1861843;74;21033;-87
2021/09/10 11:35:36;;;;;;;5.33;4.47;;;;;;;20.73;44.68;93454.05;1904067;73;20970;-90
2021/09/10 11:38:09;;;;;;;6.53;4.90;;;;;;;20.75;45.40;93448.19;1822998;76;21943;-90
2021/09/10 11:40:46;;;;;;;4.58;3.55;;;;;;;20.78;45.06;93446.52;1804171;77;21317;-87
2021/09/10 11:45:51;;;;;;;4.20;3.35;;;;;;;20.78;43.15;93452.80;1819306;76;21069;-88
2021/09/10 11:48:21;;;;;;;5.90;3.20;;;;;;;20.76;41.74;93444.81;1823835;77;21057;-87
2021/09/10 11:50:57;;;;;;;4.45;3.58;;;;;;;20.74;41.57;93445.91;1819087;74;39168;-90
2021/09/10 11:53:34;;;;;;;6.78;2.92;;;;;;;20.73;40.89;93445.14;1869457;75;21673;-89
2021/09/10 11:56:08;;;;;;;5.75;3.87;;;;;;;20.73;42.41;93438.85;1864798;74;21002;-89